sensor_id;sensor_type;location;lat;lon;timestamp;P1;durP1;ratioP1;P2;durP2;ratioP2
7515;SDS011;3799;47.184;8.538;2023-06-04T00:01:38;8.40;;;3.40;;
7515;SDS011;3799;47.184;8.538;2023-06-04T00:04:05;7.82;;;3.67;;
7515;SDS011;3799;47.184;8.538;2023-06-04T00:06:33;5.47;;;2.92;;
7515;SDS011;3799;47.184;8.538;2023-06-04T00:09:01;5.65;;;3.22;;
7515;SDS011;3799;47.184;8.538;2023-06-04T00:11:28;6.03;;;3.38;;
7515;SDS011;3799;47.184;8.538;2023-06-04T00:13:56;5.10;;;3.40;;
7515;SDS011;3799;47.184;8.538;2023-06-04T00:16:26;6.43;;;3.92;;
7515;SDS011;3799;47.184;8.538;2023-06-04T00:18:53;7.30;;;3.75;;
7515;SDS011;3799;47.184;8.538;2023-06-04T00:21:22;5.30;;;3.22;;
7515;SDS011;3799;47.184;8.538;2023-06-04T00:23:49;5.35;;;3.50;;
7515;SDS011;3799;47.184;8.538;2023-06-04T00:26:20;7.32;;;3.72;;
7515;SDS011;3799;47.184;8.538;2023-06-04T00:28:48;5.45;;;3.60;;
7515;SDS011;3799;47.184;8.538;2023-06-04T00:31:15;6.28;;;3.65;;
7515;SDS011;3799;47.184;8.538;2023-06-04T00:33:43;7.45;;;3.78;;
7515;SDS011;3799;47.184;8.538;2023-06-04T00:36:11;5.78;;;3.15;;
7515;SDS011;3799;47.184;8.538;2023-06-04T00:38:38;7.07;;;3.40;;
7515;SDS011;3799;47.184;8.538;2023-06-04T00:41:06;6.50;;;3.35;;
7515;SDS011;3799;47.184;8.538;2023-06-04T00:43:33;7.45;;;3.35;;
7515;SDS011;3799;47.184;8.538;2023-06-04T00:46:02;6.45;;;3.67;;
7515;SDS011;3799;47.184;8.538;2023-06-04T00:48:30;4.68;;;3.25;;
7515;SDS011;3799;47.184;8.538;2023-06-04T00:50:57;6.35;;;3.88;;
7515;SDS011;3799;47.184;8.538;2023-06-04T00:53:25;6.22;;;3.25;;
7515;SDS011;3799;47.184;8.538;2023-06-04T00:55:53;6.28;;;3.80;;
7515;SDS011;3799;47.184;8.538;2023-06-04T00:58:21;5.50;;;3.38;;
7515;SDS011;3799;47.184;8.538;2023-06-04T01:00:51;5.53;;;3.58;;
7515;SDS011;3799;47.184;8.538;2023-06-04T01:03:22;8.70;;;3.78;;
7515;SDS011;3799;47.184;8.538;2023-06-04T01:06:09;6.50;;;3.53;;
7515;SDS011;3799;47.184;8.538;2023-06-04T01:08:49;5.90;;;3.58;;
7515;SDS011;3799;47.184;8.538;2023-06-04T01:11:35;7.75;;;3.90;;
7515;SDS011;3799;47.184;8.538;2023-06-04T01:14:08;6.78;;;4.10;;
7515;SDS011;3799;47.184;8.538;2023-06-04T01:16:39;8.45;;;4.05;;
7515;SDS011;3799;47.184;8.538;2023-06-04T01:19:32;5.78;;;3.78;;
7515;SDS011;3799;47.184;8.538;2023-06-04T01:22:33;6.15;;;3.53;;
7515;SDS011;3799;47.184;8.538;2023-06-04T01:25:14;6.03;;;3.70;;
7515;SDS011;3799;47.184;8.538;2023-06-04T01:27:54;6.50;;;3.78;;
7515;SDS011;3799;47.184;8.538;2023-06-04T01:30:25;5.80;;;3.85;;
7515;SDS011;3799;47.184;8.538;2023-06-04T01:32:58;6.28;;;3.60;;
7515;SDS011;3799;47.184;8.538;2023-06-04T01:35:26;5.18;;;3.25;;
7515;SDS011;3799;47.184;8.538;2023-06-04T01:37:55;6.90;;;3.50;;
7515;SDS011;3799;47.184;8.538;2023-06-04T01:40:23;6.93;;;3.92;;
7515;SDS011;3799;47.184;8.538;2023-06-04T01:42:53;5.65;;;3.60;;
7515;SDS011;3799;47.184;8.538;2023-06-04T01:45:26;6.50;;;3.40;;
7515;SDS011;3799;47.184;8.538;2023-06-04T01:47:54;9.25;;;3.70;;
7515;SDS011;3799;47.184;8.538;2023-06-04T01:50:26;8.00;;;3.67;;
7515;SDS011;3799;47.184;8.538;2023-06-04T01:52:54;6.75;;;3.92;;
7515;SDS011;3799;47.184;8.538;2023-06-04T01:55:21;6.18;;;3.55;;
7515;SDS011;3799;47.184;8.538;2023-06-04T01:57:55;6.70;;;3.78;;
7515;SDS011;3799;47.184;8.538;2023-06-04T02:00:23;8.38;;;3.60;;
7515;SDS011;3799;47.184;8.538;2023-06-04T02:02:50;6.30;;;3.92;;
7515;SDS011;3799;47.184;8.538;2023-06-04T02:05:19;6.65;;;3.40;;
7515;SDS011;3799;47.184;8.538;2023-06-04T02:07:54;7.03;;;3.70;;
7515;SDS011;3799;47.184;8.538;2023-06-04T02:10:24;7.10;;;4.47;;
7515;SDS011;3799;47.184;8.538;2023-06-04T02:12:56;5.55;;;3.60;;
7515;SDS011;3799;47.184;8.538;2023-06-04T02:15:31;5.82;;;3.88;;
7515;SDS011;3799;47.184;8.538;2023-06-04T02:18:10;6.10;;;3.53;;
7515;SDS011;3799;47.184;8.538;2023-06-04T02:20:50;6.88;;;4.45;;
7515;SDS011;3799;47.184;8.538;2023-06-04T02:23:19;6.05;;;3.70;;
7515;SDS011;3799;47.184;8.538;2023-06-04T02:25:47;6.93;;;3.97;;
7515;SDS011;3799;47.184;8.538;2023-06-04T02:28:19;5.90;;;3.75;;
7515;SDS011;3799;47.184;8.538;2023-06-04T02:30:47;6.20;;;3.60;;
7515;SDS011;3799;47.184;8.538;2023-06-04T02:33:14;6.05;;;3.63;;
7515;SDS011;3799;47.184;8.538;2023-06-04T02:35:42;7.15;;;3.72;;
7515;SDS011;3799;47.184;8.538;2023-06-04T02:38:09;7.30;;;3.63;;
7515;SDS011;3799;47.184;8.538;2023-06-04T02:40:37;5.03;;;3.67;;
7515;SDS011;3799;47.184;8.538;2023-06-04T02:43:07;5.72;;;3.60;;
7515;SDS011;3799;47.184;8.538;2023-06-04T02:45:37;8.45;;;3.88;;
7515;SDS011;3799;47.184;8.538;2023-06-04T02:48:05;7.03;;;3.75;;
7515;SDS011;3799;47.184;8.538;2023-06-04T02:50:33;6.80;;;4.55;;
7515;SDS011;3799;47.184;8.538;2023-06-04T02:53:00;6.75;;;3.92;;
7515;SDS011;3799;47.184;8.538;2023-06-04T02:55:30;6.43;;;3.78;;
7515;SDS011;3799;47.184;8.538;2023-06-04T02:57:58;5.88;;;3.65;;
7515;SDS011;3799;47.184;8.538;2023-06-04T03:00:26;5.18;;;3.65;;
7515;SDS011;3799;47.184;8.538;2023-06-04T03:02:54;6.30;;;4.05;;
7515;SDS011;3799;47.184;8.538;2023-06-04T03:05:29;6.82;;;4.13;;
7515;SDS011;3799;47.184;8.538;2023-06-04T03:08:00;9.43;;;4.03;;
7515;SDS011;3799;47.184;8.538;2023-06-04T03:10:29;9.30;;;3.80;;
7515;SDS011;3799;47.184;8.538;2023-06-04T03:12:58;8.05;;;4.05;;
7515;SDS011;3799;47.184;8.538;2023-06-04T03:15:25;7.15;;;4.13;;
7515;SDS011;3799;47.184;8.538;2023-06-04T03:17:54;5.93;;;3.80;;
7515;SDS011;3799;47.184;8.538;2023-06-04T03:20:21;5.68;;;3.58;;
7515;SDS011;3799;47.184;8.538;2023-06-04T03:22:51;5.78;;;3.90;;
7515;SDS011;3799;47.184;8.538;2023-06-04T03:25:19;6.22;;;3.88;;
7515;SDS011;3799;47.184;8.538;2023-06-04T03:27:46;6.47;;;3.78;;
7515;SDS011;3799;47.184;8.538;2023-06-04T03:30:20;7.15;;;3.88;;
7515;SDS011;3799;47.184;8.538;2023-06-04T03:32:48;8.65;;;3.78;;
7515;SDS011;3799;47.184;8.538;2023-06-04T03:35:15;8.52;;;4.55;;
7515;SDS011;3799;47.184;8.538;2023-06-04T03:37:43;6.07;;;3.70;;
7515;SDS011;3799;47.184;8.538;2023-06-04T03:40:10;8.52;;;3.72;;
7515;SDS011;3799;47.184;8.538;2023-06-04T03:42:38;6.47;;;3.92;;
7515;SDS011;3799;47.184;8.538;2023-06-04T03:45:06;5.82;;;4.10;;
7515;SDS011;3799;47.184;8.538;2023-06-04T03:47:33;7.32;;;3.92;;
7515;SDS011;3799;47.184;8.538;2023-06-04T03:50:01;6.65;;;4.30;;
7515;SDS011;3799;47.184;8.538;2023-06-04T03:52:29;7.60;;;3.50;;
7515;SDS011;3799;47.184;8.538;2023-06-04T03:54:57;6.63;;;4.20;;
7515;SDS011;3799;47.184;8.538;2023-06-04T03:57:25;6.22;;;3.63;;
7515;SDS011;3799;47.184;8.538;2023-06-04T03:59:52;5.63;;;3.35;;
7515;SDS011;3799;47.184;8.538;2023-06-04T04:02:19;7.32;;;4.05;;
7515;SDS011;3799;47.184;8.538;2023-06-04T04:04:46;6.78;;;3.78;;
7515;SDS011;3799;47.184;8.538;2023-06-04T04:07:15;7.47;;;4.20;;
7515;SDS011;3799;47.184;8.538;2023-06-04T04:09:42;5.68;;;3.70;;
7515;SDS011;3799;47.184;8.538;2023-06-04T04:12:11;6.78;;;3.60;;
7515;SDS011;3799;47.184;8.538;2023-06-04T04:14:38;7.00;;;3.45;;
7515;SDS011;3799;47.184;8.538;2023-06-04T04:17:07;6.13;;;3.67;;
7515;SDS011;3799;47.184;8.538;2023-06-04T04:19:34;6.28;;;3.90;;
7515;SDS011;3799;47.184;8.538;2023-06-04T04:22:02;6.57;;;4.15;;
7515;SDS011;3799;47.184;8.538;2023-06-04T04:24:30;6.32;;;3.78;;
7515;SDS011;3799;47.184;8.538;2023-06-04T04:27:01;7.85;;;3.80;;
7515;SDS011;3799;47.184;8.538;2023-06-04T04:29:30;6.10;;;3.80;;
7515;SDS011;3799;47.184;8.538;2023-06-04T04:32:03;7.38;;;3.90;;
7515;SDS011;3799;47.184;8.538;2023-06-04T04:34:38;5.95;;;3.63;;
7515;SDS011;3799;47.184;8.538;2023-06-04T04:37:10;8.00;;;3.97;;
7515;SDS011;3799;47.184;8.538;2023-06-04T04:39:38;5.20;;;3.90;;
7515;SDS011;3799;47.184;8.538;2023-06-04T04:42:05;5.38;;;3.55;;
7515;SDS011;3799;47.184;8.538;2023-06-04T04:44:33;5.65;;;3.85;;
7515;SDS011;3799;47.184;8.538;2023-06-04T04:47:00;7.45;;;4.28;;
7515;SDS011;3799;47.184;8.538;2023-06-04T04:49:28;6.25;;;3.08;;
7515;SDS011;3799;47.184;8.538;2023-06-04T04:51:56;6.95;;;3.58;;
7515;SDS011;3799;47.184;8.538;2023-06-04T04:54:23;7.93;;;4.43;;
7515;SDS011;3799;47.184;8.538;2023-06-04T04:56:51;7.47;;;4.15;;
7515;SDS011;3799;47.184;8.538;2023-06-04T04:59:37;7.50;;;4.40;;
7515;SDS011;3799;47.184;8.538;2023-06-04T05:04:30;6.60;;;4.20;;
7515;SDS011;3799;47.184;8.538;2023-06-04T05:06:57;6.80;;;4.00;;
7515;SDS011;3799;47.184;8.538;2023-06-04T05:09:24;9.05;;;4.55;;
7515;SDS011;3799;47.184;8.538;2023-06-04T05:11:52;9.15;;;4.60;;
7515;SDS011;3799;47.184;8.538;2023-06-04T05:14:19;5.75;;;3.67;;
7515;SDS011;3799;47.184;8.538;2023-06-04T05:16:46;8.10;;;4.53;;
7515;SDS011;3799;47.184;8.538;2023-06-04T05:19:15;8.13;;;4.38;;
7515;SDS011;3799;47.184;8.538;2023-06-04T05:21:44;7.10;;;3.80;;
7515;SDS011;3799;47.184;8.538;2023-06-04T05:24:11;7.78;;;4.45;;
7515;SDS011;3799;47.184;8.538;2023-06-04T05:26:39;7.65;;;4.57;;
7515;SDS011;3799;47.184;8.538;2023-06-04T05:29:06;7.72;;;5.40;;
7515;SDS011;3799;47.184;8.538;2023-06-04T05:31:34;6.80;;;5.10;;
7515;SDS011;3799;47.184;8.538;2023-06-04T05:34:02;8.73;;;5.18;;
7515;SDS011;3799;47.184;8.538;2023-06-04T05:36:31;6.90;;;4.63;;
7515;SDS011;3799;47.184;8.538;2023-06-04T05:38:58;7.82;;;4.97;;
7515;SDS011;3799;47.184;8.538;2023-06-04T05:41:27;9.25;;;5.55;;
7515;SDS011;3799;47.184;8.538;2023-06-04T05:43:55;8.20;;;4.80;;
7515;SDS011;3799;47.184;8.538;2023-06-04T05:46:22;8.55;;;5.35;;
7515;SDS011;3799;47.184;8.538;2023-06-04T05:48:49;8.27;;;5.22;;
7515;SDS011;3799;47.184;8.538;2023-06-04T05:51:17;8.88;;;5.20;;
7515;SDS011;3799;47.184;8.538;2023-06-04T05:53:45;8.50;;;5.10;;
7515;SDS011;3799;47.184;8.538;2023-06-04T05:56:13;8.40;;;5.50;;
7515;SDS011;3799;47.184;8.538;2023-06-04T05:58:41;7.88;;;5.22;;
7515;SDS011;3799;47.184;8.538;2023-06-04T06:01:08;9.13;;;4.80;;
7515;SDS011;3799;47.184;8.538;2023-06-04T06:03:36;8.25;;;5.68;;
7515;SDS011;3799;47.184;8.538;2023-06-04T06:06:03;7.18;;;5.18;;
7515;SDS011;3799;47.184;8.538;2023-06-04T06:08:32;6.97;;;4.60;;
7515;SDS011;3799;47.184;8.538;2023-06-04T06:10:59;7.88;;;5.32;;
7515;SDS011;3799;47.184;8.538;2023-06-04T06:13:27;11.02;;;5.68;;
7515;SDS011;3799;47.184;8.538;2023-06-04T06:15:58;7.10;;;4.38;;
7515;SDS011;3799;47.184;8.538;2023-06-04T06:18:25;7.80;;;5.00;;
7515;SDS011;3799;47.184;8.538;2023-06-04T06:20:53;8.18;;;5.13;;
7515;SDS011;3799;47.184;8.538;2023-06-04T06:23:20;8.07;;;5.00;;
7515;SDS011;3799;47.184;8.538;2023-06-04T06:25:49;6.97;;;4.63;;
7515;SDS011;3799;47.184;8.538;2023-06-04T06:28:18;6.82;;;4.95;;
7515;SDS011;3799;47.184;8.538;2023-06-04T06:30:46;6.28;;;4.40;;
7515;SDS011;3799;47.184;8.538;2023-06-04T06:33:14;7.32;;;4.85;;
7515;SDS011;3799;47.184;8.538;2023-06-04T06:35:43;7.90;;;4.97;;
7515;SDS011;3799;47.184;8.538;2023-06-04T06:38:13;7.47;;;5.35;;
7515;SDS011;3799;47.184;8.538;2023-06-04T06:40:44;9.75;;;5.40;;
7515;SDS011;3799;47.184;8.538;2023-06-04T06:43:11;7.53;;;5.47;;
7515;SDS011;3799;47.184;8.538;2023-06-04T06:45:38;7.32;;;4.35;;
7515;SDS011;3799;47.184;8.538;2023-06-04T06:48:08;8.80;;;5.25;;
7515;SDS011;3799;47.184;8.538;2023-06-04T06:50:35;10.60;;;5.28;;
7515;SDS011;3799;47.184;8.538;2023-06-04T06:53:03;7.90;;;5.05;;
7515;SDS011;3799;47.184;8.538;2023-06-04T06:55:31;7.97;;;5.03;;
7515;SDS011;3799;47.184;8.538;2023-06-04T06:57:58;8.73;;;6.05;;
7515;SDS011;3799;47.184;8.538;2023-06-04T07:00:30;8.77;;;5.22;;
7515;SDS011;3799;47.184;8.538;2023-06-04T07:02:58;8.75;;;5.53;;
7515;SDS011;3799;47.184;8.538;2023-06-04T07:05:25;9.52;;;5.65;;
7515;SDS011;3799;47.184;8.538;2023-06-04T07:07:52;13.15;;;5.75;;
7515;SDS011;3799;47.184;8.538;2023-06-04T07:10:21;8.38;;;5.45;;
7515;SDS011;3799;47.184;8.538;2023-06-04T07:12:48;9.70;;;5.80;;
7515;SDS011;3799;47.184;8.538;2023-06-04T07:15:16;8.23;;;5.63;;
7515;SDS011;3799;47.184;8.538;2023-06-04T07:17:43;10.95;;;5.60;;
7515;SDS011;3799;47.184;8.538;2023-06-04T07:20:11;8.70;;;6.05;;
7515;SDS011;3799;47.184;8.538;2023-06-04T07:22:41;7.97;;;5.43;;
7515;SDS011;3799;47.184;8.538;2023-06-04T07:25:16;8.65;;;5.25;;
7515;SDS011;3799;47.184;8.538;2023-06-04T07:27:43;9.52;;;5.60;;
7515;SDS011;3799;47.184;8.538;2023-06-04T07:30:12;10.38;;;5.55;;
7515;SDS011;3799;47.184;8.538;2023-06-04T07:32:39;7.15;;;5.30;;
7515;SDS011;3799;47.184;8.538;2023-06-04T07:35:07;10.52;;;5.97;;
7515;SDS011;3799;47.184;8.538;2023-06-04T07:37:35;9.27;;;5.82;;
7515;SDS011;3799;47.184;8.538;2023-06-04T07:40:02;8.30;;;5.28;;
7515;SDS011;3799;47.184;8.538;2023-06-04T07:42:30;8.90;;;6.15;;
7515;SDS011;3799;47.184;8.538;2023-06-04T07:44:58;9.27;;;5.65;;
7515;SDS011;3799;47.184;8.538;2023-06-04T07:47:26;10.52;;;6.53;;
7515;SDS011;3799;47.184;8.538;2023-06-04T07:49:53;8.77;;;6.03;;
7515;SDS011;3799;47.184;8.538;2023-06-04T07:52:32;9.15;;;6.40;;
7515;SDS011;3799;47.184;8.538;2023-06-04T07:55:00;11.32;;;6.22;;
7515;SDS011;3799;47.184;8.538;2023-06-04T07:57:28;10.25;;;6.20;;
7515;SDS011;3799;47.184;8.538;2023-06-04T07:59:56;10.82;;;7.28;;
7515;SDS011;3799;47.184;8.538;2023-06-04T08:02:23;10.48;;;6.25;;
7515;SDS011;3799;47.184;8.538;2023-06-04T08:04:51;9.52;;;6.28;;
7515;SDS011;3799;47.184;8.538;2023-06-04T08:07:19;10.63;;;7.60;;
7515;SDS011;3799;47.184;8.538;2023-06-04T08:09:46;10.15;;;6.45;;
7515;SDS011;3799;47.184;8.538;2023-06-04T08:12:13;9.75;;;7.05;;
7515;SDS011;3799;47.184;8.538;2023-06-04T08:14:43;9.25;;;6.10;;
7515;SDS011;3799;47.184;8.538;2023-06-04T08:17:10;10.00;;;6.47;;
7515;SDS011;3799;47.184;8.538;2023-06-04T08:19:38;12.73;;;6.57;;
7515;SDS011;3799;47.184;8.538;2023-06-04T08:22:05;9.73;;;6.63;;
7515;SDS011;3799;47.184;8.538;2023-06-04T08:24:33;10.30;;;7.07;;
7515;SDS011;3799;47.184;8.538;2023-06-04T08:27:01;13.23;;;7.00;;
7515;SDS011;3799;47.184;8.538;2023-06-04T08:29:28;11.48;;;7.07;;
7515;SDS011;3799;47.184;8.538;2023-06-04T08:31:55;12.40;;;8.40;;
7515;SDS011;3799;47.184;8.538;2023-06-04T08:34:23;11.40;;;8.02;;
7515;SDS011;3799;47.184;8.538;2023-06-04T08:36:50;11.65;;;7.82;;
7515;SDS011;3799;47.184;8.538;2023-06-04T08:39:17;9.30;;;6.25;;
7515;SDS011;3799;47.184;8.538;2023-06-04T08:41:52;11.63;;;7.57;;
7515;SDS011;3799;47.184;8.538;2023-06-04T08:46:51;11.20;;;7.43;;
7515;SDS011;3799;47.184;8.538;2023-06-04T08:49:20;9.55;;;6.72;;
7515;SDS011;3799;47.184;8.538;2023-06-04T08:54:18;9.05;;;6.22;;
7515;SDS011;3799;47.184;8.538;2023-06-04T08:56:45;10.75;;;7.30;;
7515;SDS011;3799;47.184;8.538;2023-06-04T08:59:16;13.50;;;6.95;;
7515;SDS011;3799;47.184;8.538;2023-06-04T09:01:43;9.10;;;6.97;;
7515;SDS011;3799;47.184;8.538;2023-06-04T09:04:14;14.32;;;7.55;;
7515;SDS011;3799;47.184;8.538;2023-06-04T09:06:41;10.23;;;7.05;;
7515;SDS011;3799;47.184;8.538;2023-06-04T09:09:10;10.15;;;7.20;;
7515;SDS011;3799;47.184;8.538;2023-06-04T09:11:58;14.13;;;7.15;;
7515;SDS011;3799;47.184;8.538;2023-06-04T09:14:28;10.75;;;7.15;;
7515;SDS011;3799;47.184;8.538;2023-06-04T09:16:55;10.13;;;6.57;;
7515;SDS011;3799;47.184;8.538;2023-06-04T09:19:25;10.93;;;6.82;;
7515;SDS011;3799;47.184;8.538;2023-06-04T09:22:06;11.07;;;6.70;;
7515;SDS011;3799;47.184;8.538;2023-06-04T09:24:40;14.18;;;6.90;;
7515;SDS011;3799;47.184;8.538;2023-06-04T09:27:16;11.35;;;6.82;;
7515;SDS011;3799;47.184;8.538;2023-06-04T09:29:49;10.02;;;6.63;;
7515;SDS011;3799;47.184;8.538;2023-06-04T09:32:24;12.23;;;7.10;;
7515;SDS011;3799;47.184;8.538;2023-06-04T09:34:54;13.02;;;7.55;;
7515;SDS011;3799;47.184;8.538;2023-06-04T09:37:24;9.65;;;6.38;;
7515;SDS011;3799;47.184;8.538;2023-06-04T09:39:53;11.23;;;6.70;;
7515;SDS011;3799;47.184;8.538;2023-06-04T09:42:24;9.60;;;7.05;;
7515;SDS011;3799;47.184;8.538;2023-06-04T09:44:51;9.48;;;6.18;;
7515;SDS011;3799;47.184;8.538;2023-06-04T09:47:19;9.98;;;6.57;;
7515;SDS011;3799;47.184;8.538;2023-06-04T09:49:46;9.43;;;6.57;;
7515;SDS011;3799;47.184;8.538;2023-06-04T09:52:17;9.75;;;6.95;;
7515;SDS011;3799;47.184;8.538;2023-06-04T09:54:44;10.45;;;7.43;;
7515;SDS011;3799;47.184;8.538;2023-06-04T09:57:15;11.93;;;7.40;;
7515;SDS011;3799;47.184;8.538;2023-06-04T09:59:44;11.57;;;7.20;;
7515;SDS011;3799;47.184;8.538;2023-06-04T10:02:13;9.93;;;7.00;;
7515;SDS011;3799;47.184;8.538;2023-06-04T10:04:43;9.95;;;6.75;;
7515;SDS011;3799;47.184;8.538;2023-06-04T10:07:20;10.07;;;7.07;;
7515;SDS011;3799;47.184;8.538;2023-06-04T10:10:25;10.98;;;7.82;;
7515;SDS011;3799;47.184;8.538;2023-06-04T10:13:00;16.17;;;7.32;;
7515;SDS011;3799;47.184;8.538;2023-06-04T10:15:36;13.88;;;9.02;;
7515;SDS011;3799;47.184;8.538;2023-06-04T10:18:04;11.73;;;7.78;;
7515;SDS011;3799;47.184;8.538;2023-06-04T10:20:33;11.18;;;7.72;;
7515;SDS011;3799;47.184;8.538;2023-06-04T10:23:01;12.50;;;8.35;;
7515;SDS011;3799;47.184;8.538;2023-06-04T10:25:31;11.63;;;6.85;;
7515;SDS011;3799;47.184;8.538;2023-06-04T10:27:59;14.32;;;7.18;;
7515;SDS011;3799;47.184;8.538;2023-06-04T10:30:28;12.95;;;7.32;;
7515;SDS011;3799;47.184;8.538;2023-06-04T10:32:57;11.00;;;7.45;;
7515;SDS011;3799;47.184;8.538;2023-06-04T10:35:32;11.77;;;6.90;;
7515;SDS011;3799;47.184;8.538;2023-06-04T10:38:04;8.50;;;6.65;;
7515;SDS011;3799;47.184;8.538;2023-06-04T10:40:40;11.02;;;6.93;;
7515;SDS011;3799;47.184;8.538;2023-06-04T10:43:08;10.15;;;6.63;;
7515;SDS011;3799;47.184;8.538;2023-06-04T10:45:37;9.50;;;6.70;;
7515;SDS011;3799;47.184;8.538;2023-06-04T10:48:06;10.63;;;6.43;;
7515;SDS011;3799;47.184;8.538;2023-06-04T10:50:35;10.10;;;6.32;;
7515;SDS011;3799;47.184;8.538;2023-06-04T10:53:16;8.07;;;5.88;;
7515;SDS011;3799;47.184;8.538;2023-06-04T10:55:48;8.73;;;6.25;;
7515;SDS011;3799;47.184;8.538;2023-06-04T10:58:16;7.93;;;5.85;;
7515;SDS011;3799;47.184;8.538;2023-06-04T11:00:45;6.72;;;4.43;;
7515;SDS011;3799;47.184;8.538;2023-06-04T11:03:16;6.30;;;3.72;;
7515;SDS011;3799;47.184;8.538;2023-06-04T11:05:45;9.88;;;4.90;;
7515;SDS011;3799;47.184;8.538;2023-06-04T11:08:13;6.57;;;4.18;;
7515;SDS011;3799;47.184;8.538;2023-06-04T11:10:42;5.28;;;3.92;;
7515;SDS011;3799;47.184;8.538;2023-06-04T11:13:11;8.88;;;4.30;;
7515;SDS011;3799;47.184;8.538;2023-06-04T11:15:39;7.68;;;4.32;;
7515;SDS011;3799;47.184;8.538;2023-06-04T11:20:40;8.77;;;4.25;;
7515;SDS011;3799;47.184;8.538;2023-06-04T11:23:11;7.40;;;4.60;;
7515;SDS011;3799;47.184;8.538;2023-06-04T11:25:39;7.60;;;4.72;;
7515;SDS011;3799;47.184;8.538;2023-06-04T11:28:18;8.50;;;4.35;;
7515;SDS011;3799;47.184;8.538;2023-06-04T11:30:56;8.20;;;4.60;;
7515;SDS011;3799;47.184;8.538;2023-06-04T11:33:44;8.80;;;4.72;;
7515;SDS011;3799;47.184;8.538;2023-06-04T11:36:25;7.47;;;4.65;;
7515;SDS011;3799;47.184;8.538;2023-06-04T11:38:58;7.47;;;4.57;;
7515;SDS011;3799;47.184;8.538;2023-06-04T11:41:31;6.65;;;4.43;;
7515;SDS011;3799;47.184;8.538;2023-06-04T11:44:02;7.03;;;4.85;;
7515;SDS011;3799;47.184;8.538;2023-06-04T11:46:39;7.00;;;4.72;;
7515;SDS011;3799;47.184;8.538;2023-06-04T11:49:17;6.22;;;4.15;;
7515;SDS011;3799;47.184;8.538;2023-06-04T11:51:52;7.60;;;4.35;;
7515;SDS011;3799;47.184;8.538;2023-06-04T11:54:20;7.50;;;3.95;;
7515;SDS011;3799;47.184;8.538;2023-06-04T11:56:49;6.43;;;4.43;;
7515;SDS011;3799;47.184;8.538;2023-06-04T11:59:18;6.60;;;4.18;;
7515;SDS011;3799;47.184;8.538;2023-06-04T12:01:46;5.30;;;4.00;;
7515;SDS011;3799;47.184;8.538;2023-06-04T12:04:17;8.10;;;3.65;;
7515;SDS011;3799;47.184;8.538;2023-06-04T12:06:54;7.18;;;3.67;;
7515;SDS011;3799;47.184;8.538;2023-06-04T12:09:30;5.85;;;3.80;;
7515;SDS011;3799;47.184;8.538;2023-06-04T12:12:12;5.05;;;3.78;;
7515;SDS011;3799;47.184;8.538;2023-06-04T12:14:39;5.55;;;3.88;;
7515;SDS011;3799;47.184;8.538;2023-06-04T12:17:07;7.05;;;4.00;;
7515;SDS011;3799;47.184;8.538;2023-06-04T12:19:46;5.43;;;3.47;;
7515;SDS011;3799;47.184;8.538;2023-06-04T12:22:15;5.70;;;3.70;;
7515;SDS011;3799;47.184;8.538;2023-06-04T12:24:53;6.50;;;3.63;;
7515;SDS011;3799;47.184;8.538;2023-06-04T12:27:27;6.57;;;3.78;;
7515;SDS011;3799;47.184;8.538;2023-06-04T12:29:58;7.80;;;3.70;;
7515;SDS011;3799;47.184;8.538;2023-06-04T12:32:30;4.22;;;2.75;;
7515;SDS011;3799;47.184;8.538;2023-06-04T12:35:01;5.45;;;3.40;;
7515;SDS011;3799;47.184;8.538;2023-06-04T12:37:28;5.95;;;3.20;;
7515;SDS011;3799;47.184;8.538;2023-06-04T12:39:55;7.25;;;3.70;;
7515;SDS011;3799;47.184;8.538;2023-06-04T12:42:23;7.68;;;3.42;;
7515;SDS011;3799;47.184;8.538;2023-06-04T12:44:50;8.05;;;3.53;;
7515;SDS011;3799;47.184;8.538;2023-06-04T12:47:27;6.18;;;3.55;;
7515;SDS011;3799;47.184;8.538;2023-06-04T12:49:55;4.97;;;3.50;;
7515;SDS011;3799;47.184;8.538;2023-06-04T12:52:23;7.38;;;3.47;;
7515;SDS011;3799;47.184;8.538;2023-06-04T12:54:58;5.82;;;3.05;;
7515;SDS011;3799;47.184;8.538;2023-06-04T12:57:25;6.13;;;3.38;;
7515;SDS011;3799;47.184;8.538;2023-06-04T12:59:54;6.05;;;3.17;;
7515;SDS011;3799;47.184;8.538;2023-06-04T13:02:22;12.50;;;3.50;;
7515;SDS011;3799;47.184;8.538;2023-06-04T13:04:50;6.68;;;3.30;;
7515;SDS011;3799;47.184;8.538;2023-06-04T13:07:21;6.20;;;3.67;;
7515;SDS011;3799;47.184;8.538;2023-06-04T13:09:53;4.93;;;3.40;;
7515;SDS011;3799;47.184;8.538;2023-06-04T13:12:20;4.85;;;3.53;;
7515;SDS011;3799;47.184;8.538;2023-06-04T13:14:48;5.95;;;3.17;;
7515;SDS011;3799;47.184;8.538;2023-06-04T13:17:18;5.63;;;3.35;;
7515;SDS011;3799;47.184;8.538;2023-06-04T13:19:57;5.00;;;3.30;;
7515;SDS011;3799;47.184;8.538;2023-06-04T13:22:26;5.45;;;3.38;;
7515;SDS011;3799;47.184;8.538;2023-06-04T13:24:53;9.32;;;3.53;;
7515;SDS011;3799;47.184;8.538;2023-06-04T13:27:21;7.00;;;3.17;;
7515;SDS011;3799;47.184;8.538;2023-06-04T13:29:48;6.97;;;3.30;;
7515;SDS011;3799;47.184;8.538;2023-06-04T13:32:15;7.78;;;3.53;;
7515;SDS011;3799;47.184;8.538;2023-06-04T13:34:43;6.15;;;3.35;;
7515;SDS011;3799;47.184;8.538;2023-06-04T13:37:11;5.88;;;3.42;;
7515;SDS011;3799;47.184;8.538;2023-06-04T13:39:39;5.72;;;3.50;;
7515;SDS011;3799;47.184;8.538;2023-06-04T13:42:07;7.18;;;4.03;;
7515;SDS011;3799;47.184;8.538;2023-06-04T13:44:34;6.05;;;3.25;;
7515;SDS011;3799;47.184;8.538;2023-06-04T13:47:02;12.38;;;3.88;;
7515;SDS011;3799;47.184;8.538;2023-06-04T13:49:32;6.72;;;3.40;;
7515;SDS011;3799;47.184;8.538;2023-06-04T13:52:00;10.63;;;3.83;;
7515;SDS011;3799;47.184;8.538;2023-06-04T13:54:28;5.80;;;3.47;;
7515;SDS011;3799;47.184;8.538;2023-06-04T13:56:56;6.60;;;3.55;;
7515;SDS011;3799;47.184;8.538;2023-06-04T13:59:23;6.70;;;3.47;;
7515;SDS011;3799;47.184;8.538;2023-06-04T14:01:51;5.03;;;3.25;;
7515;SDS011;3799;47.184;8.538;2023-06-04T14:04:18;7.13;;;3.90;;
7515;SDS011;3799;47.184;8.538;2023-06-04T14:06:45;7.95;;;3.22;;
7515;SDS011;3799;47.184;8.538;2023-06-04T14:09:14;6.68;;;3.25;;
7515;SDS011;3799;47.184;8.538;2023-06-04T14:11:42;5.65;;;3.20;;
7515;SDS011;3799;47.184;8.538;2023-06-04T14:14:12;4.53;;;3.08;;
7515;SDS011;3799;47.184;8.538;2023-06-04T14:16:40;5.38;;;2.83;;
7515;SDS011;3799;47.184;8.538;2023-06-04T14:19:08;6.32;;;2.92;;
7515;SDS011;3799;47.184;8.538;2023-06-04T14:21:35;6.70;;;3.35;;
7515;SDS011;3799;47.184;8.538;2023-06-04T14:24:04;5.25;;;3.08;;
7515;SDS011;3799;47.184;8.538;2023-06-04T14:26:31;4.03;;;3.10;;
7515;SDS011;3799;47.184;8.538;2023-06-04T14:29:00;6.78;;;3.25;;
7515;SDS011;3799;47.184;8.538;2023-06-04T14:31:27;5.47;;;2.95;;
7515;SDS011;3799;47.184;8.538;2023-06-04T14:33:55;6.53;;;3.20;;
7515;SDS011;3799;47.184;8.538;2023-06-04T14:36:23;5.20;;;3.30;;
7515;SDS011;3799;47.184;8.538;2023-06-04T14:38:51;7.72;;;3.55;;
7515;SDS011;3799;47.184;8.538;2023-06-04T14:41:21;5.57;;;3.28;;
7515;SDS011;3799;47.184;8.538;2023-06-04T14:43:49;6.65;;;3.38;;
7515;SDS011;3799;47.184;8.538;2023-06-04T14:46:16;6.53;;;3.65;;
7515;SDS011;3799;47.184;8.538;2023-06-04T14:48:43;5.07;;;3.30;;
7515;SDS011;3799;47.184;8.538;2023-06-04T14:51:12;6.03;;;3.63;;
7515;SDS011;3799;47.184;8.538;2023-06-04T14:53:39;10.45;;;3.70;;
7515;SDS011;3799;47.184;8.538;2023-06-04T14:56:08;6.03;;;3.30;;
7515;SDS011;3799;47.184;8.538;2023-06-04T14:58:40;5.07;;;3.30;;
7515;SDS011;3799;47.184;8.538;2023-06-04T15:01:08;6.85;;;3.55;;
7515;SDS011;3799;47.184;8.538;2023-06-04T15:03:40;6.50;;;3.65;;
7515;SDS011;3799;47.184;8.538;2023-06-04T15:06:07;6.80;;;3.25;;
7515;SDS011;3799;47.184;8.538;2023-06-04T15:08:45;5.35;;;3.33;;
7515;SDS011;3799;47.184;8.538;2023-06-04T15:11:13;4.97;;;3.03;;
7515;SDS011;3799;47.184;8.538;2023-06-04T15:16:09;6.07;;;3.15;;
7515;SDS011;3799;47.184;8.538;2023-06-04T15:18:37;5.57;;;3.00;;
7515;SDS011;3799;47.184;8.538;2023-06-04T15:21:05;5.45;;;3.20;;
7515;SDS011;3799;47.184;8.538;2023-06-04T15:23:33;5.10;;;3.58;;
7515;SDS011;3799;47.184;8.538;2023-06-04T15:26:01;5.43;;;3.15;;
7515;SDS011;3799;47.184;8.538;2023-06-04T15:28:28;4.32;;;3.13;;
7515;SDS011;3799;47.184;8.538;2023-06-04T15:30:56;7.05;;;3.30;;
7515;SDS011;3799;47.184;8.538;2023-06-04T15:33:23;6.32;;;3.30;;
7515;SDS011;3799;47.184;8.538;2023-06-04T15:35:54;7.05;;;3.28;;
7515;SDS011;3799;47.184;8.538;2023-06-04T15:38:24;5.38;;;3.25;;
7515;SDS011;3799;47.184;8.538;2023-06-04T15:40:54;3.97;;;2.83;;